This is the latest recevied weather packets stored in our database for station/object NEWPRT. If no packets are shown the sender has not sent any weather packets the latest 10 day(s).
| Time | Temp. | Humidity | Pressure | Rain* | Wind** | Luminosity | Snow |
|---|---|---|---|---|---|---|---|
| 1777785538 | - | 80% | 1013.7 hPa | 0 mm | - | - | - |
| 1777785215 | - | 81% | 1013.6 hPa | 0 mm | - | - | - |
| 1777784892 | - | 81% | 1013.6 hPa | 0 mm | - | - | - |
| 1777784569 | - | 81% | 1013.7 hPa | 0 mm | - | - | - |
| 1777784246 | - | 81% | 1013.8 hPa | 0 mm | - | - | - |
| 1777783923 | - | 77% | 1013.8 hPa | 0 mm | - | - | - |
| 1777783600 | - | 77% | 1013.8 hPa | 0 mm | - | - | - |
| 1777783277 | - | 78% | 1013.7 hPa | 0 mm | - | - | - |
| 1777782954 | - | 77% | 1013.7 hPa | 0 mm | - | - | - |
| 1777782632 | - | 75% | 1013.2 hPa | 0 mm | - | - | - |
| 1777782309 | - | 76% | 1013.3 hPa | 0 mm | - | - | - |
| 1777781985 | - | 76% | 1013.2 hPa | 0 mm | - | - | - |
| 1777781663 | - | 75% | 1013.2 hPa | 0 mm | - | - | - |
| 1777781341 | - | 76% | 1013.3 hPa | 0 mm | - | - | - |
| 1777781016 | - | 76% | 1013.3 hPa | 0 mm | - | - | - |
| 1777780693 | - | 75% | 1013.5 hPa | 0 mm | - | - | - |
| 1777780370 | - | 72% | 1013.6 hPa | 0 mm | - | - | - |
| 1777780047 | - | 69% | 1013.6 hPa | 0 mm | - | - | - |
| 1777779724 | - | 67% | 1013.4 hPa | 0 mm | - | - | - |
| 1777779401 | - | 69% | 1013.7 hPa | 0 mm | - | - | - |
| 1777779078 | - | 67% | 1013.6 hPa | 0 mm | - | - | - |
| 1777778755 | - | 64% | 1013.4 hPa | 0 mm | - | - | - |
| 1777778432 | - | 66% | 1013.5 hPa | 0 mm | - | - | - |
| 1777778109 | - | 62% | 1013.3 hPa | 0 mm | - | - | - |
| 1777777786 | - | 64% | 1013.7 hPa | 0 mm | - | - | - |
* Rain latest hour (hover to see other rain measurements)
** Current wind speed in m/s (hover to see current wind gust speed)